sensor_id;sensor_type;location;lat;lon;timestamp;P1;durP1;ratioP1;P2;durP2;ratioP2
52554;SDS011;38455;52.710;6.502;2023-02-22T00:00:34;40.45;;;18.20;;
52554;SDS011;38455;52.710;6.502;2023-02-22T00:03:21;38.38;;;18.35;;
52554;SDS011;38455;52.710;6.502;2023-02-22T00:05:52;40.45;;;17.67;;
52554;SDS011;38455;52.710;6.502;2023-02-22T00:08:20;37.00;;;17.05;;
52554;SDS011;38455;52.710;6.502;2023-02-22T00:10:47;40.53;;;18.55;;
52554;SDS011;38455;52.710;6.502;2023-02-22T00:13:16;40.10;;;18.55;;
52554;SDS011;38455;52.710;6.502;2023-02-22T00:15:43;39.63;;;17.98;;
52554;SDS011;38455;52.710;6.502;2023-02-22T00:18:11;38.38;;;16.38;;
52554;SDS011;38455;52.710;6.502;2023-02-22T00:20:38;32.53;;;15.73;;
52554;SDS011;38455;52.710;6.502;2023-02-22T00:23:05;39.08;;;18.52;;
52554;SDS011;38455;52.710;6.502;2023-02-22T00:25:33;38.80;;;17.13;;
52554;SDS011;38455;52.710;6.502;2023-02-22T00:28:00;30.35;;;15.32;;
52554;SDS011;38455;52.710;6.502;2023-02-22T00:30:28;40.17;;;16.83;;
52554;SDS011;38455;52.710;6.502;2023-02-22T00:32:56;31.10;;;15.00;;
52554;SDS011;38455;52.710;6.502;2023-02-22T00:35:23;34.22;;;14.63;;
52554;SDS011;38455;52.710;6.502;2023-02-22T00:37:52;33.90;;;16.27;;
52554;SDS011;38455;52.710;6.502;2023-02-22T00:40:23;33.40;;;16.80;;
52554;SDS011;38455;52.710;6.502;2023-02-22T00:42:55;33.92;;;14.80;;
52554;SDS011;38455;52.710;6.502;2023-02-22T00:45:22;34.97;;;15.45;;
52554;SDS011;38455;52.710;6.502;2023-02-22T00:47:50;30.13;;;16.38;;
52554;SDS011;38455;52.710;6.502;2023-02-22T00:50:17;37.70;;;17.00;;
52554;SDS011;38455;52.710;6.502;2023-02-22T00:52:43;37.50;;;18.48;;
52554;SDS011;38455;52.710;6.502;2023-02-22T00:55:13;39.92;;;18.02;;
52554;SDS011;38455;52.710;6.502;2023-02-22T00:57:47;35.38;;;17.42;;
52554;SDS011;38455;52.710;6.502;2023-02-22T01:00:18;40.97;;;18.05;;
52554;SDS011;38455;52.710;6.502;2023-02-22T01:02:46;45.10;;;19.55;;
52554;SDS011;38455;52.710;6.502;2023-02-22T01:05:15;36.33;;;16.45;;
52554;SDS011;38455;52.710;6.502;2023-02-22T01:07:41;35.00;;;17.55;;
52554;SDS011;38455;52.710;6.502;2023-02-22T01:10:07;38.15;;;18.42;;
52554;SDS011;38455;52.710;6.502;2023-02-22T01:12:35;43.28;;;19.85;;
52554;SDS011;38455;52.710;6.502;2023-02-22T01:15:05;38.75;;;17.48;;
52554;SDS011;38455;52.710;6.502;2023-02-22T01:17:34;36.80;;;17.65;;
52554;SDS011;38455;52.710;6.502;2023-02-22T01:20:02;39.63;;;19.45;;
52554;SDS011;38455;52.710;6.502;2023-02-22T01:22:34;42.20;;;18.73;;
52554;SDS011;38455;52.710;6.502;2023-02-22T01:25:00;37.97;;;18.00;;
52554;SDS011;38455;52.710;6.502;2023-02-22T01:27:25;38.30;;;18.65;;
52554;SDS011;38455;52.710;6.502;2023-02-22T01:29:52;38.13;;;19.20;;
52554;SDS011;38455;52.710;6.502;2023-02-22T01:32:17;43.88;;;20.30;;
52554;SDS011;38455;52.710;6.502;2023-02-22T01:34:43;42.22;;;20.00;;
52554;SDS011;38455;52.710;6.502;2023-02-22T01:37:08;39.47;;;19.05;;
52554;SDS011;38455;52.710;6.502;2023-02-22T01:39:34;41.42;;;18.83;;
52554;SDS011;38455;52.710;6.502;2023-02-22T01:42:00;46.00;;;20.30;;
52554;SDS011;38455;52.710;6.502;2023-02-22T01:44:33;39.83;;;19.20;;
52554;SDS011;38455;52.710;6.502;2023-02-22T01:47:01;44.55;;;17.98;;
52554;SDS011;38455;52.710;6.502;2023-02-22T01:49:30;44.38;;;20.13;;
52554;SDS011;38455;52.710;6.502;2023-02-22T01:52:02;43.03;;;19.55;;
52554;SDS011;38455;52.710;6.502;2023-02-22T01:54:42;44.92;;;18.92;;
52554;SDS011;38455;52.710;6.502;2023-02-22T01:57:25;42.92;;;19.65;;
52554;SDS011;38455;52.710;6.502;2023-02-22T02:00:27;45.45;;;19.42;;
52554;SDS011;38455;52.710;6.502;2023-02-22T02:02:49;40.60;;;18.35;;
52554;SDS011;38455;52.710;6.502;2023-02-22T02:05:30;44.25;;;18.58;;
52554;SDS011;38455;52.710;6.502;2023-02-22T02:07:58;39.15;;;18.50;;
52554;SDS011;38455;52.710;6.502;2023-02-22T02:10:37;47.15;;;19.88;;
52554;SDS011;38455;52.710;6.502;2023-02-22T02:13:03;41.42;;;19.88;;
52554;SDS011;38455;52.710;6.502;2023-02-22T02:15:31;50.15;;;21.30;;
52554;SDS011;38455;52.710;6.502;2023-02-22T02:17:59;44.58;;;20.45;;
52554;SDS011;38455;52.710;6.502;2023-02-22T02:23:23;43.50;;;19.23;;
52554;SDS011;38455;52.710;6.502;2023-02-22T02:34:19;42.67;;;20.27;;
52554;SDS011;38455;52.710;6.502;2023-02-22T02:37:11;43.90;;;19.48;;
52554;SDS011;38455;52.710;6.502;2023-02-22T02:42:43;42.25;;;19.83;;
52554;SDS011;38455;52.710;6.502;2023-02-22T02:45:43;41.67;;;19.05;;
52554;SDS011;38455;52.710;6.502;2023-02-22T02:48:14;47.05;;;21.60;;
52554;SDS011;38455;52.710;6.502;2023-02-22T02:50:46;47.33;;;20.90;;
52554;SDS011;38455;52.710;6.502;2023-02-22T02:53:15;43.03;;;20.38;;
52554;SDS011;38455;52.710;6.502;2023-02-22T02:55:45;45.22;;;19.30;;
52554;SDS011;38455;52.710;6.502;2023-02-22T02:58:15;43.05;;;21.60;;
52554;SDS011;38455;52.710;6.502;2023-02-22T03:00:44;46.50;;;21.17;;
52554;SDS011;38455;52.710;6.502;2023-02-22T03:03:27;49.28;;;22.50;;
52554;SDS011;38455;52.710;6.502;2023-02-22T03:06:23;47.47;;;20.40;;
52554;SDS011;38455;52.710;6.502;2023-02-22T03:11:30;43.72;;;20.13;;
52554;SDS011;38455;52.710;6.502;2023-02-22T03:19:22;52.38;;;25.15;;
52554;SDS011;38455;52.710;6.502;2023-02-22T03:22:25;54.75;;;23.65;;
52554;SDS011;38455;52.710;6.502;2023-02-22T03:25:07;53.38;;;24.08;;
52554;SDS011;38455;52.710;6.502;2023-02-22T03:27:46;52.22;;;24.83;;
52554;SDS011;38455;52.710;6.502;2023-02-22T03:32:45;48.85;;;24.08;;
52554;SDS011;38455;52.710;6.502;2023-02-22T03:35:18;54.05;;;25.67;;
52554;SDS011;38455;52.710;6.502;2023-02-22T03:37:48;57.90;;;26.13;;
52554;SDS011;38455;52.710;6.502;2023-02-22T03:40:20;57.25;;;26.80;;
52554;SDS011;38455;52.710;6.502;2023-02-22T03:42:53;57.22;;;25.80;;
52554;SDS011;38455;52.710;6.502;2023-02-22T03:45:23;59.90;;;25.65;;
52554;SDS011;38455;52.710;6.502;2023-02-22T03:47:52;58.72;;;28.35;;
52554;SDS011;38455;52.710;6.502;2023-02-22T03:50:27;68.35;;;32.28;;
52554;SDS011;38455;52.710;6.502;2023-02-22T03:52:56;69.18;;;33.35;;
52554;SDS011;38455;52.710;6.502;2023-02-22T03:55:23;66.47;;;30.63;;
52554;SDS011;38455;52.710;6.502;2023-02-22T03:57:50;73.47;;;34.08;;
52554;SDS011;38455;52.710;6.502;2023-02-22T04:00:21;78.47;;;34.58;;
52554;SDS011;38455;52.710;6.502;2023-02-22T04:02:50;70.45;;;33.50;;
52554;SDS011;38455;52.710;6.502;2023-02-22T04:05:16;76.25;;;36.22;;
52554;SDS011;38455;52.710;6.502;2023-02-22T04:07:42;77.13;;;34.85;;
52554;SDS011;38455;52.710;6.502;2023-02-22T04:10:09;75.28;;;34.20;;
52554;SDS011;38455;52.710;6.502;2023-02-22T04:12:36;72.13;;;35.58;;
52554;SDS011;38455;52.710;6.502;2023-02-22T04:15:03;71.50;;;33.97;;
52554;SDS011;38455;52.710;6.502;2023-02-22T04:17:30;69.15;;;32.83;;
52554;SDS011;38455;52.710;6.502;2023-02-22T04:19:55;76.90;;;34.60;;
52554;SDS011;38455;52.710;6.502;2023-02-22T04:22:21;70.50;;;35.20;;
52554;SDS011;38455;52.710;6.502;2023-02-22T04:24:47;79.82;;;37.45;;
52554;SDS011;38455;52.710;6.502;2023-02-22T04:27:13;80.18;;;37.15;;
52554;SDS011;38455;52.710;6.502;2023-02-22T04:29:39;80.57;;;38.13;;
52554;SDS011;38455;52.710;6.502;2023-02-22T04:32:05;83.63;;;38.55;;
52554;SDS011;38455;52.710;6.502;2023-02-22T04:34:31;89.43;;;40.15;;
52554;SDS011;38455;52.710;6.502;2023-02-22T04:36:56;85.03;;;37.85;;
52554;SDS011;38455;52.710;6.502;2023-02-22T04:39:22;82.32;;;35.75;;
52554;SDS011;38455;52.710;6.502;2023-02-22T04:41:48;81.93;;;37.03;;
52554;SDS011;38455;52.710;6.502;2023-02-22T04:44:13;87.00;;;38.00;;
52554;SDS011;38455;52.710;6.502;2023-02-22T04:46:39;89.93;;;39.28;;
52554;SDS011;38455;52.710;6.502;2023-02-22T04:49:04;95.40;;;40.58;;
52554;SDS011;38455;52.710;6.502;2023-02-22T04:51:30;92.13;;;41.38;;
52554;SDS011;38455;52.710;6.502;2023-02-22T04:53:56;96.53;;;42.70;;
52554;SDS011;38455;52.710;6.502;2023-02-22T04:56:22;92.43;;;43.92;;
52554;SDS011;38455;52.710;6.502;2023-02-22T04:58:48;94.07;;;42.90;;
52554;SDS011;38455;52.710;6.502;2023-02-22T05:01:14;103.82;;;43.72;;
52554;SDS011;38455;52.710;6.502;2023-02-22T05:03:40;103.57;;;43.40;;
52554;SDS011;38455;52.710;6.502;2023-02-22T05:06:06;104.15;;;45.47;;
52554;SDS011;38455;52.710;6.502;2023-02-22T05:08:32;94.22;;;42.10;;
52554;SDS011;38455;52.710;6.502;2023-02-22T05:10:58;102.90;;;45.95;;
52554;SDS011;38455;52.710;6.502;2023-02-22T05:13:24;105.50;;;48.83;;
52554;SDS011;38455;52.710;6.502;2023-02-22T05:15:50;116.82;;;51.63;;
52554;SDS011;38455;52.710;6.502;2023-02-22T05:18:16;110.88;;;49.97;;
52554;SDS011;38455;52.710;6.502;2023-02-22T05:20:41;116.50;;;50.35;;
52554;SDS011;38455;52.710;6.502;2023-02-22T05:23:07;112.45;;;49.47;;
52554;SDS011;38455;52.710;6.502;2023-02-22T05:25:33;116.28;;;48.25;;
52554;SDS011;38455;52.710;6.502;2023-02-22T05:28:03;111.65;;;46.60;;
52554;SDS011;38455;52.710;6.502;2023-02-22T05:30:33;116.35;;;48.88;;
52554;SDS011;38455;52.710;6.502;2023-02-22T05:33:00;109.28;;;45.63;;
52554;SDS011;38455;52.710;6.502;2023-02-22T05:35:27;102.18;;;47.35;;
52554;SDS011;38455;52.710;6.502;2023-02-22T05:37:53;133.50;;;52.50;;
52554;SDS011;38455;52.710;6.502;2023-02-22T05:40:20;115.18;;;47.22;;
52554;SDS011;38455;52.710;6.502;2023-02-22T05:42:48;105.20;;;46.45;;
52554;SDS011;38455;52.710;6.502;2023-02-22T05:45:15;111.07;;;47.58;;
52554;SDS011;38455;52.710;6.502;2023-02-22T05:47:42;111.60;;;49.38;;
52554;SDS011;38455;52.710;6.502;2023-02-22T05:50:08;111.47;;;47.50;;
52554;SDS011;38455;52.710;6.502;2023-02-22T05:52:34;120.15;;;50.10;;
52554;SDS011;38455;52.710;6.502;2023-02-22T05:55:00;113.75;;;47.28;;
52554;SDS011;38455;52.710;6.502;2023-02-22T05:57:26;108.38;;;44.40;;
52554;SDS011;38455;52.710;6.502;2023-02-22T05:59:52;108.88;;;47.35;;
52554;SDS011;38455;52.710;6.502;2023-02-22T06:02:17;114.03;;;45.88;;
52554;SDS011;38455;52.710;6.502;2023-02-22T06:04:44;122.63;;;45.75;;
52554;SDS011;38455;52.710;6.502;2023-02-22T06:07:10;118.07;;;48.92;;
52554;SDS011;38455;52.710;6.502;2023-02-22T06:09:35;124.15;;;51.00;;
52554;SDS011;38455;52.710;6.502;2023-02-22T06:12:01;114.07;;;45.10;;
52554;SDS011;38455;52.710;6.502;2023-02-22T06:14:27;114.45;;;48.28;;
52554;SDS011;38455;52.710;6.502;2023-02-22T06:16:53;123.15;;;51.08;;
52554;SDS011;38455;52.710;6.502;2023-02-22T06:19:19;116.03;;;48.35;;
52554;SDS011;38455;52.710;6.502;2023-02-22T06:21:52;114.70;;;46.90;;
52554;SDS011;38455;52.710;6.502;2023-02-22T06:24:19;113.82;;;48.03;;
52554;SDS011;38455;52.710;6.502;2023-02-22T06:26:45;115.50;;;49.88;;
52554;SDS011;38455;52.710;6.502;2023-02-22T06:29:11;122.00;;;48.35;;
52554;SDS011;38455;52.710;6.502;2023-02-22T06:31:36;121.95;;;48.33;;
52554;SDS011;38455;52.710;6.502;2023-02-22T06:34:02;116.20;;;48.47;;
52554;SDS011;38455;52.710;6.502;2023-02-22T06:36:28;119.97;;;51.28;;
52554;SDS011;38455;52.710;6.502;2023-02-22T06:38:55;121.65;;;50.90;;
52554;SDS011;38455;52.710;6.502;2023-02-22T06:41:21;119.07;;;48.47;;
52554;SDS011;38455;52.710;6.502;2023-02-22T06:43:47;127.18;;;52.83;;
52554;SDS011;38455;52.710;6.502;2023-02-22T06:46:13;128.68;;;52.63;;
52554;SDS011;38455;52.710;6.502;2023-02-22T06:48:38;120.78;;;49.67;;
52554;SDS011;38455;52.710;6.502;2023-02-22T06:51:05;129.43;;;51.72;;
52554;SDS011;38455;52.710;6.502;2023-02-22T06:53:35;125.40;;;51.20;;
52554;SDS011;38455;52.710;6.502;2023-02-22T06:56:01;124.88;;;51.80;;
52554;SDS011;38455;52.710;6.502;2023-02-22T06:58:27;118.00;;;49.33;;
52554;SDS011;38455;52.710;6.502;2023-02-22T07:00:53;119.78;;;50.85;;
52554;SDS011;38455;52.710;6.502;2023-02-22T07:03:18;122.88;;;49.00;;
52554;SDS011;38455;52.710;6.502;2023-02-22T07:05:44;115.25;;;49.03;;
52554;SDS011;38455;52.710;6.502;2023-02-22T07:08:10;127.32;;;50.50;;
52554;SDS011;38455;52.710;6.502;2023-02-22T07:10:37;123.05;;;49.05;;
52554;SDS011;38455;52.710;6.502;2023-02-22T07:13:04;118.93;;;47.22;;
52554;SDS011;38455;52.710;6.502;2023-02-22T07:15:32;119.60;;;49.80;;
52554;SDS011;38455;52.710;6.502;2023-02-22T07:17:58;112.38;;;47.00;;
52554;SDS011;38455;52.710;6.502;2023-02-22T07:20:25;124.65;;;50.97;;
52554;SDS011;38455;52.710;6.502;2023-02-22T07:22:52;112.13;;;46.38;;
52554;SDS011;38455;52.710;6.502;2023-02-22T07:25:18;116.60;;;50.65;;
52554;SDS011;38455;52.710;6.502;2023-02-22T07:27:45;111.93;;;47.78;;
52554;SDS011;38455;52.710;6.502;2023-02-22T07:30:21;122.72;;;48.33;;
52554;SDS011;38455;52.710;6.502;2023-02-22T07:32:53;116.15;;;47.03;;
52554;SDS011;38455;52.710;6.502;2023-02-22T07:35:27;102.43;;;42.60;;
52554;SDS011;38455;52.710;6.502;2023-02-22T07:37:54;111.13;;;45.60;;
52554;SDS011;38455;52.710;6.502;2023-02-22T07:40:20;109.47;;;44.65;;
52554;SDS011;38455;52.710;6.502;2023-02-22T07:42:54;114.88;;;46.40;;
52554;SDS011;38455;52.710;6.502;2023-02-22T07:45:28;108.78;;;43.72;;
52554;SDS011;38455;52.710;6.502;2023-02-22T07:47:56;121.20;;;47.97;;
52554;SDS011;38455;52.710;6.502;2023-02-22T07:50:23;119.45;;;45.85;;
52554;SDS011;38455;52.710;6.502;2023-02-22T07:52:50;122.25;;;47.92;;
52554;SDS011;38455;52.710;6.502;2023-02-22T07:55:19;122.85;;;44.63;;
52554;SDS011;38455;52.710;6.502;2023-02-22T07:57:50;117.55;;;45.42;;
52554;SDS011;38455;52.710;6.502;2023-02-22T08:00:23;117.18;;;44.42;;
52554;SDS011;38455;52.710;6.502;2023-02-22T08:02:50;117.32;;;45.42;;
52554;SDS011;38455;52.710;6.502;2023-02-22T08:05:16;122.65;;;45.33;;
52554;SDS011;38455;52.710;6.502;2023-02-22T08:07:43;121.78;;;46.30;;
52554;SDS011;38455;52.710;6.502;2023-02-22T08:10:08;116.65;;;44.83;;
52554;SDS011;38455;52.710;6.502;2023-02-22T08:12:36;118.63;;;45.33;;
52554;SDS011;38455;52.710;6.502;2023-02-22T08:15:06;112.53;;;42.40;;
52554;SDS011;38455;52.710;6.502;2023-02-22T08:17:33;120.97;;;45.83;;
52554;SDS011;38455;52.710;6.502;2023-02-22T08:19:59;119.20;;;45.42;;
52554;SDS011;38455;52.710;6.502;2023-02-22T08:22:25;118.47;;;44.85;;
52554;SDS011;38455;52.710;6.502;2023-02-22T08:24:53;114.40;;;45.78;;
52554;SDS011;38455;52.710;6.502;2023-02-22T08:27:23;116.03;;;45.42;;
52554;SDS011;38455;52.710;6.502;2023-02-22T08:29:49;130.73;;;45.95;;
52554;SDS011;38455;52.710;6.502;2023-02-22T08:32:15;128.73;;;48.33;;
52554;SDS011;38455;52.710;6.502;2023-02-22T08:34:41;132.23;;;47.88;;
52554;SDS011;38455;52.710;6.502;2023-02-22T08:37:07;141.48;;;48.35;;
52554;SDS011;38455;52.710;6.502;2023-02-22T08:39:33;130.15;;;45.88;;
52554;SDS011;38455;52.710;6.502;2023-02-22T08:41:59;149.77;;;50.55;;
52554;SDS011;38455;52.710;6.502;2023-02-22T08:44:24;145.93;;;49.08;;
52554;SDS011;38455;52.710;6.502;2023-02-22T08:46:50;147.52;;;50.47;;
52554;SDS011;38455;52.710;6.502;2023-02-22T08:49:16;160.07;;;53.92;;
52554;SDS011;38455;52.710;6.502;2023-02-22T08:51:41;147.10;;;50.95;;
52554;SDS011;38455;52.710;6.502;2023-02-22T08:54:07;171.85;;;54.95;;
52554;SDS011;38455;52.710;6.502;2023-02-22T08:56:33;167.15;;;53.47;;
52554;SDS011;38455;52.710;6.502;2023-02-22T08:58:59;165.77;;;55.22;;
52554;SDS011;38455;52.710;6.502;2023-02-22T09:01:24;160.25;;;57.83;;
52554;SDS011;38455;52.710;6.502;2023-02-22T09:03:50;176.75;;;57.42;;
52554;SDS011;38455;52.710;6.502;2023-02-22T09:06:17;165.18;;;53.97;;
52554;SDS011;38455;52.710;6.502;2023-02-22T09:08:43;163.57;;;54.97;;
52554;SDS011;38455;52.710;6.502;2023-02-22T09:11:08;157.70;;;52.65;;
52554;SDS011;38455;52.710;6.502;2023-02-22T09:13:34;169.88;;;51.80;;
52554;SDS011;38455;52.710;6.502;2023-02-22T09:16:00;160.40;;;54.03;;
52554;SDS011;38455;52.710;6.502;2023-02-22T09:18:26;159.18;;;53.83;;
52554;SDS011;38455;52.710;6.502;2023-02-22T09:20:52;163.45;;;55.40;;
52554;SDS011;38455;52.710;6.502;2023-02-22T09:23:19;150.15;;;51.22;;
52554;SDS011;38455;52.710;6.502;2023-02-22T09:25:45;162.68;;;51.78;;
52554;SDS011;38455;52.710;6.502;2023-02-22T09:28:12;184.10;;;57.45;;
52554;SDS011;38455;52.710;6.502;2023-02-22T09:30:38;159.43;;;52.38;;
52554;SDS011;38455;52.710;6.502;2023-02-22T09:33:05;160.85;;;52.47;;
52554;SDS011;38455;52.710;6.502;2023-02-22T09:35:36;171.45;;;54.47;;
52554;SDS011;38455;52.710;6.502;2023-02-22T09:38:06;167.85;;;52.88;;
52554;SDS011;38455;52.710;6.502;2023-02-22T09:40:34;166.63;;;55.47;;
52554;SDS011;38455;52.710;6.502;2023-02-22T09:43:19;164.90;;;53.65;;
52554;SDS011;38455;52.710;6.502;2023-02-22T09:48:30;187.40;;;54.78;;
52554;SDS011;38455;52.710;6.502;2023-02-22T09:50:59;205.38;;;60.28;;
52554;SDS011;38455;52.710;6.502;2023-02-22T09:53:32;180.93;;;56.70;;
52554;SDS011;38455;52.710;6.502;2023-02-22T09:56:07;189.10;;;59.25;;
52554;SDS011;38455;52.710;6.502;2023-02-22T10:04:20;187.43;;;61.20;;
52554;SDS011;38455;52.710;6.502;2023-02-22T10:09:31;196.02;;;59.78;;
52554;SDS011;38455;52.710;6.502;2023-02-22T10:12:06;225.02;;;68.32;;
52554;SDS011;38455;52.710;6.502;2023-02-22T10:23:02;241.80;;;70.18;;
52554;SDS011;38455;52.710;6.502;2023-02-22T10:25:29;232.57;;;70.90;;
52554;SDS011;38455;52.710;6.502;2023-02-22T10:28:00;225.45;;;65.28;;
52554;SDS011;38455;52.710;6.502;2023-02-22T10:30:31;243.27;;;70.63;;
52554;SDS011;38455;52.710;6.502;2023-02-22T10:35:44;209.60;;;67.68;;
52554;SDS011;38455;52.710;6.502;2023-02-22T10:38:18;187.73;;;56.97;;
52554;SDS011;38455;52.710;6.502;2023-02-22T10:40:46;200.38;;;58.80;;
52554;SDS011;38455;52.710;6.502;2023-02-22T10:43:14;180.43;;;57.63;;
52554;SDS011;38455;52.710;6.502;2023-02-22T10:45:39;194.27;;;57.92;;
52554;SDS011;38455;52.710;6.502;2023-02-22T10:48:10;167.30;;;55.05;;
52554;SDS011;38455;52.710;6.502;2023-02-22T10:50:39;155.65;;;51.22;;
52554;SDS011;38455;52.710;6.502;2023-02-22T10:53:07;159.63;;;50.45;;
52554;SDS011;38455;52.710;6.502;2023-02-22T10:55:33;150.10;;;48.20;;
52554;SDS011;38455;52.710;6.502;2023-02-22T10:58:01;159.93;;;51.22;;
52554;SDS011;38455;52.710;6.502;2023-02-22T11:00:32;141.05;;;47.80;;
52554;SDS011;38455;52.710;6.502;2023-02-22T11:05:46;145.30;;;49.83;;
52554;SDS011;38455;52.710;6.502;2023-02-22T11:10:46;124.10;;;43.95;;
52554;SDS011;38455;52.710;6.502;2023-02-22T11:13:16;131.18;;;45.75;;
52554;SDS011;38455;52.710;6.502;2023-02-22T11:15:49;129.02;;;45.72;;
52554;SDS011;38455;52.710;6.502;2023-02-22T11:21:11;126.28;;;44.70;;
52554;SDS011;38455;52.710;6.502;2023-02-22T11:23:41;116.15;;;41.85;;
52554;SDS011;38455;52.710;6.502;2023-02-22T11:26:11;121.38;;;44.40;;
52554;SDS011;38455;52.710;6.502;2023-02-22T11:28:42;117.05;;;42.15;;
52554;SDS011;38455;52.710;6.502;2023-02-22T11:31:14;111.68;;;39.85;;
52554;SDS011;38455;52.710;6.502;2023-02-22T11:39:05;98.82;;;36.75;;
52554;SDS011;38455;52.710;6.502;2023-02-22T11:41:51;100.38;;;37.72;;
52554;SDS011;38455;52.710;6.502;2023-02-22T11:44:26;94.10;;;37.28;;
52554;SDS011;38455;52.710;6.502;2023-02-22T11:46:54;97.93;;;38.40;;
52554;SDS011;38455;52.710;6.502;2023-02-22T11:49:31;98.63;;;38.30;;
52554;SDS011;38455;52.710;6.502;2023-02-22T12:06:48;80.35;;;33.80;;
52554;SDS011;38455;52.710;6.502;2023-02-22T12:15:14;87.43;;;34.65;;
52554;SDS011;38455;52.710;6.502;2023-02-22T12:17:57;81.68;;;33.80;;
52554;SDS011;38455;52.710;6.502;2023-02-22T12:20:33;80.03;;;34.95;;
52554;SDS011;38455;52.710;6.502;2023-02-22T12:23:14;77.55;;;34.38;;
52554;SDS011;38455;52.710;6.502;2023-02-22T12:31:02;73.93;;;30.75;;
52554;SDS011;38455;52.710;6.502;2023-02-22T12:33:36;72.22;;;30.25;;
52554;SDS011;38455;52.710;6.502;2023-02-22T12:36:13;69.18;;;31.23;;
52554;SDS011;38455;52.710;6.502;2023-02-22T12:38:43;67.57;;;27.60;;
52554;SDS011;38455;52.710;6.502;2023-02-22T12:41:29;70.22;;;31.15;;
52554;SDS011;38455;52.710;6.502;2023-02-22T12:47:06;66.10;;;30.00;;
52554;SDS011;38455;52.710;6.502;2023-02-22T12:49:42;66.13;;;29.30;;
52554;SDS011;38455;52.710;6.502;2023-02-22T12:55:12;61.53;;;28.33;;
52554;SDS011;38455;52.710;6.502;2023-02-22T12:57:46;66.25;;;28.88;;
52554;SDS011;38455;52.710;6.502;2023-02-22T13:00:26;66.47;;;29.65;;
52554;SDS011;38455;52.710;6.502;2023-02-22T13:08:51;72.97;;;30.88;;
52554;SDS011;38455;52.710;6.502;2023-02-22T13:11:35;60.88;;;28.55;;
52554;SDS011;38455;52.710;6.502;2023-02-22T13:19:45;57.97;;;26.63;;
52554;SDS011;38455;52.710;6.502;2023-02-22T13:27:42;62.35;;;28.35;;
52554;SDS011;38455;52.710;6.502;2023-02-22T13:30:55;58.90;;;26.52;;
52554;SDS011;38455;52.710;6.502;2023-02-22T13:35:59;56.80;;;25.92;;
52554;SDS011;38455;52.710;6.502;2023-02-22T13:41:31;53.85;;;25.27;;
52554;SDS011;38455;52.710;6.502;2023-02-22T13:52:45;50.40;;;24.58;;
52554;SDS011;38455;52.710;6.502;2023-02-22T13:55:20;47.78;;;22.67;;
52554;SDS011;38455;52.710;6.502;2023-02-22T13:57:55;48.20;;;24.52;;
52554;SDS011;38455;52.710;6.502;2023-02-22T14:00:59;50.53;;;26.00;;
52554;SDS011;38455;52.710;6.502;2023-02-22T14:03:32;46.00;;;22.63;;
52554;SDS011;38455;52.710;6.502;2023-02-22T14:09:07;47.90;;;23.92;;
52554;SDS011;38455;52.710;6.502;2023-02-22T14:11:39;47.45;;;24.25;;
52554;SDS011;38455;52.710;6.502;2023-02-22T14:16:32;49.28;;;24.63;;
52554;SDS011;38455;52.710;6.502;2023-02-22T14:21:31;45.53;;;23.50;;
52554;SDS011;38455;52.710;6.502;2023-02-22T14:24:06;50.00;;;25.35;;
52554;SDS011;38455;52.710;6.502;2023-02-22T14:26:38;45.42;;;22.95;;
52554;SDS011;38455;52.710;6.502;2023-02-22T14:31:52;50.95;;;24.10;;
52554;SDS011;38455;52.710;6.502;2023-02-22T14:37:42;42.92;;;23.65;;
52554;SDS011;38455;52.710;6.502;2023-02-22T14:40:22;49.50;;;23.42;;
52554;SDS011;38455;52.710;6.502;2023-02-22T14:43:05;47.58;;;23.52;;
52554;SDS011;38455;52.710;6.502;2023-02-22T14:45:38;48.22;;;23.90;;
52554;SDS011;38455;52.710;6.502;2023-02-22T14:51:10;54.75;;;25.90;;
52554;SDS011;38455;52.710;6.502;2023-02-22T14:53:46;47.65;;;23.50;;
52554;SDS011;38455;52.710;6.502;2023-02-22T14:58:51;48.58;;;25.20;;
52554;SDS011;38455;52.710;6.502;2023-02-22T15:01:37;44.67;;;23.95;;
52554;SDS011;38455;52.710;6.502;2023-02-22T15:04:16;50.13;;;24.70;;
52554;SDS011;38455;52.710;6.502;2023-02-22T15:06:42;50.38;;;25.27;;
52554;SDS011;38455;52.710;6.502;2023-02-22T15:09:21;48.55;;;25.17;;
52554;SDS011;38455;52.710;6.502;2023-02-22T15:14:32;42.70;;;23.42;;
52554;SDS011;38455;52.710;6.502;2023-02-22T15:17:08;43.92;;;23.60;;
52554;SDS011;38455;52.710;6.502;2023-02-22T15:19:44;45.08;;;24.15;;
52554;SDS011;38455;52.710;6.502;2023-02-22T15:22:20;49.40;;;25.23;;
52554;SDS011;38455;52.710;6.502;2023-02-22T15:25:03;48.95;;;24.73;;
52554;SDS011;38455;52.710;6.502;2023-02-22T15:27:31;46.35;;;25.25;;
52554;SDS011;38455;52.710;6.502;2023-02-22T15:30:03;41.55;;;23.58;;
52554;SDS011;38455;52.710;6.502;2023-02-22T15:37:56;46.47;;;24.15;;
52554;SDS011;38455;52.710;6.502;2023-02-22T15:40:28;51.10;;;24.95;;
52554;SDS011;38455;52.710;6.502;2023-02-22T15:43:01;43.47;;;23.90;;
52554;SDS011;38455;52.710;6.502;2023-02-22T15:45:32;51.87;;;26.10;;
52554;SDS011;38455;52.710;6.502;2023-02-22T15:47:58;45.92;;;24.90;;
52554;SDS011;38455;52.710;6.502;2023-02-22T15:50:28;48.10;;;26.02;;
52554;SDS011;38455;52.710;6.502;2023-02-22T15:53:04;47.28;;;24.83;;
52554;SDS011;38455;52.710;6.502;2023-02-22T15:55:45;50.60;;;25.73;;
52554;SDS011;38455;52.710;6.502;2023-02-22T16:00:39;49.60;;;25.95;;
52554;SDS011;38455;52.710;6.502;2023-02-22T16:03:08;55.30;;;26.80;;
52554;SDS011;38455;52.710;6.502;2023-02-22T16:05:40;50.20;;;26.25;;
52554;SDS011;38455;52.710;6.502;2023-02-22T16:08:18;49.47;;;25.35;;
52554;SDS011;38455;52.710;6.502;2023-02-22T16:13:27;53.15;;;25.92;;
52554;SDS011;38455;52.710;6.502;2023-02-22T16:15:57;54.20;;;27.05;;
52554;SDS011;38455;52.710;6.502;2023-02-22T16:18:32;48.67;;;26.63;;
52554;SDS011;38455;52.710;6.502;2023-02-22T16:21:07;47.33;;;26.85;;
52554;SDS011;38455;52.710;6.502;2023-02-22T16:23:45;54.65;;;27.67;;
52554;SDS011;38455;52.710;6.502;2023-02-22T16:28:56;56.67;;;28.75;;
52554;SDS011;38455;52.710;6.502;2023-02-22T16:31:33;57.42;;;27.33;;
52554;SDS011;38455;52.710;6.502;2023-02-22T16:34:01;59.92;;;29.88;;
52554;SDS011;38455;52.710;6.502;2023-02-22T16:36:37;56.85;;;28.58;;
52554;SDS011;38455;52.710;6.502;2023-02-22T16:39:23;60.33;;;30.05;;
52554;SDS011;38455;52.710;6.502;2023-02-22T16:41:59;57.85;;;28.75;;
52554;SDS011;38455;52.710;6.502;2023-02-22T16:44:26;56.20;;;28.77;;
52554;SDS011;38455;52.710;6.502;2023-02-22T16:46:53;55.88;;;28.63;;
52554;SDS011;38455;52.710;6.502;2023-02-22T16:49:20;57.78;;;29.15;;
52554;SDS011;38455;52.710;6.502;2023-02-22T16:54:14;55.75;;;27.50;;
52554;SDS011;38455;52.710;6.502;2023-02-22T16:56:48;51.30;;;26.23;;
52554;SDS011;38455;52.710;6.502;2023-02-22T16:59:14;54.15;;;27.25;;
52554;SDS011;38455;52.710;6.502;2023-02-22T17:01:40;57.17;;;29.60;;
52554;SDS011;38455;52.710;6.502;2023-02-22T17:04:13;54.55;;;28.10;;
52554;SDS011;38455;52.710;6.502;2023-02-22T17:06:44;53.28;;;28.10;;
52554;SDS011;38455;52.710;6.502;2023-02-22T17:09:10;54.10;;;27.95;;
52554;SDS011;38455;52.710;6.502;2023-02-22T17:11:36;54.50;;;28.17;;
52554;SDS011;38455;52.710;6.502;2023-02-22T17:14:03;50.08;;;25.88;;